Hinckley, Ohio
Current Conditions -  °F | °C
As of 9:51 AM on Sunday 21 Dec 2014 (Local Time) from KCLE Reporting Station
Overcast Overcast  
Wind Chill: 24°   Ceiling: 2300
Heat Index: 30°   Visibility: 8mi
Dew Point: 22°   Wind: 6mph
Humidity: 72%   Direction: 170°S
Pressure: 30.35"   Gusts: NA
Location:  41.24°N, 81.75°W
Report Text: KCLE 211451Z 17005KT 8SM OVC023 M01/M06 A3035 RMK AO2 SLP285 T10111056 53002 $
Loading
Personal Weather Stations






























Interactive Weather Map New forecast layout! Learn more

10-Day Weather Forecast

Advertisements
Track Severe Weather on mobile